x

Portland 12 Nm Southeast Of Portland,me (44007) Wave Buoy

2:50 - Thu 21st Sep 2017 All times are EDT. -4 hours from GMT.

  • Sig Wave height 5.9ft
  • Swell Direction
  • Peak Period 8s
  • Average Period 6s
  • Wind
    9mph, 11mph gusts
  • Sea Temp 59°f
  • Aire Temp 64°f
  • Sea Pressure 1017.2mb
  • Portland 12 Nm Southeast Of Portland,me
  • Portland 12 Nm Southeast Of Portland,me

More Historic Weather Station data

Upgrade to MSW Pro to gain access to the past 30 days of data for over 8000 Wavebouys and Weather Stations around the globe.

Join

Comparision Forecast

View Surf forecast
   
jue 09/21 2:50 6ft 8s 6s 9 11 mph 1017.2mb 59f 64f
1:50 6ft 8s 6s 7 9 mph 1017mb 59f 64f
12:50 6ft 8s 6s 11 13 mph 1017.2mb 59f 64f
11:50 6ft 7s 6s 16 16 mph 1017.6mb 59f 63f
10:50 6ft 8s 6s 18 20 mph 1017.7mb 59f 62f
9:50 6ft 8s 6s 18 22 mph 1017.4mb 59f 62f
8:50 6.5ft 9s 6s 20 25 mph 1016.8mb 59f 62f
7:50 6.5ft 8s 6s 20 22 mph 1016.3mb 59f 62f
6:50 5.5ft 12s 6s 20 25 mph 1015.2mb 59f 63f
5:50 6ft 9s 7s 20 22 mph 1014.8mb 59f 63f
4:50 6ft 11s 7s 20 22 mph 1014.1mb 59f 64f
3:50 6ft 12s 7s 20 25 mph 1013.5mb 59f 64f
2:50 6ft 12s 7s 18 22 mph 1013.3mb 60f 64f
1:50 5ft 12s 6s 18 22 mph 1013.2mb 60f 64f
12:50 5.5ft 12s 7s 18 20 mph 1013.2mb 60f 64f
mié 09/20 11:50 5.5ft 12s 7s 16 20 mph 1013.1mb 60f 64f
10:50 5.5ft 12s 6s 16 18 mph 1013.1mb 60f 65f
9:50 5.5ft 10s 7s 16 18 mph 1012.9mb 60f 65f
8:50 5ft 12s 7s 16 18 mph 1012.6mb 60f 66f
7:50 6.5ft 11s 7s 13 16 mph 1012.8mb 60f 65f
6:50 6ft 12s 8s 11 13 mph 1012.7mb 60f 65f
5:50 6ft 11s 8s 11 13 mph 1012.7mb 60f 65f
4:50 6ft 12s 7s 11 13 mph 1012.4mb 60f 65f
3:50 6ft 10s 7s 11 13 mph 1012.6mb 60f 64f
2:50 6ft 10s 7s 16 16 mph 1012.7mb 60f 64f
1:50 5.5ft 11s 7s 13 16 mph 1013mb 60f 64f
12:50 6ft 11s 7s 11 13 mph 1013.5mb 60f 63f
11:50 6ft 12s 7s 11 13 mph 1013.8mb 60f 62f
10:50 5.5ft 12s 6s 11 13 mph 1014.4mb 60f 62f
9:50 5.5ft 12s 7s 11 13 mph 1014.4mb 60f 62f
8:50 6ft 10s 7s 13 16 mph 1014.5mb 60f 62f
7:50 6ft 8s 7s 13 16 mph 1014.6mb 61f 63f
6:50 6ft 11s 7s 11 13 mph 1014.9mb 61f 62f
5:50 5.5ft 13s 7s 13 16 mph 1014.4mb 61f 62f
4:50 6ft 11s 7s 16 18 mph 1014.5mb 61f 63f
3:50 7ft 10s 8s 13 16 mph 1014.9mb 61f 63f
2:50 6ft 12s 7s 11 13 mph 1015.2mb 60f 62f
1:50 7ft 11s 8s 13 16 mph 1015.7mb 60f 62f
12:50 6ft 11s 7s 13 16 mph 1016.4mb 60f 62f
mar 09/19 11:50 5ft 13s 6s 13 16 mph 1016.7mb 61f 61f
10:50 5ft 13s 6s 13 16 mph 1017.1mb 61f 62f
9:50 5ft 13s 6s 11 13 mph 1017.5mb 62f 62f
8:50 5.5ft 13s  -  16 18 mph 1017.5mb 61f 62f
7:50 6ft 9s 7s 18 20 mph 1017.5mb 61f 62f
6:50 6ft 14s 7s 16 20 mph 1017.7mb 61f 62f
5:50 6ft 14s 7s 18 20 mph 1018.1mb 62f 62f
4:50 5ft 12s 7s 16 18 mph 1018.3mb 62f 62f
3:50 5.5ft 12s 7s 16 18 mph 1018.7mb 62f 62f
2:50 5ft 13s 7s 16 18 mph 1018.9mb 62f 62f
1:50 5ft 11s 6s 16 20 mph 1019.4mb 62f 62f
12:50 4.5ft 13s 6s 16 18 mph 1020mb 62f 62f
11:50 4.5ft 13s 6s 13 13 mph 1020.5mb 62f 62f
10:50 4ft 13s 6s 13 16 mph 1020.8mb 62f 61f
9:50 3.5ft 14s 6s 11 13 mph 1021.2mb 62f 61f
8:50 3.5ft 7s 6s 11 13 mph 1021.1mb 61f 61f
7:50 3.5ft 8s 6s 11 13 mph 1021.2mb 61f 60f
6:50 3.5ft 10s 6s 16 18 mph 1021.3mb 60f 60f
5:50 3.5ft 8s 6s 13 16 mph 1021.2mb 60f 60f
4:50 4ft 13s 6s 13 16 mph 1021.2mb 60f 60f
3:50 3.5ft 12s 6s 13 13 mph 1021.5mb 61f 59f
2:50 4ft 9s 6s 11 13 mph 1021.6mb 61f 59f
1:50 4ft 12s 7s 11 11 mph 1022mb 61f 59f
12:50 3.5ft 12s 7s 11 13 mph 1022.1mb 61f 59f
lun 09/18 11:50 3.5ft 13s 6s 9 11 mph 1022.1mb 61f 60f
10:50 3.5ft 11s 6s 11 11 mph 1022.6mb 61f 61f
9:50 3.5ft 13s 7s 9 11 mph 1022.5mb 61f 61f
8:50 3.5ft 10s 7s 9 11 mph 1022.5mb 61f 61f
7:50 3.5ft 10s 7s 9 11 mph 1022.5mb 61f 61f
6:50 3.5ft 14s 8s 9 11 mph 1022.1mb 61f 61f
5:50 3.5ft 9s 8s 7 9 mph 1022.1mb 61f 61f
4:50 3.5ft 9s 8s 7 9 mph 1022.2mb 61f 61f
3:50 3.5ft 9s 8s 7 9 mph 1022.2mb 62f 62f
2:50 4ft 15s 9s 7 9 mph 1022.3mb 62f 62f
1:50 3.5ft 10s 8s 4 4 mph 1022mb 61f 62f
12:50 3.5ft 11s 8s 7 7 mph 1022.2mb 61f 62f
11:50 3.5ft 11s 8s 4 7 mph 1022.3mb 61f 62f
10:50 3.5ft 11s 8s 2 4 mph 1022.3mb 61f 62f
9:50 3.5ft 12s 8s 2 4 mph 1022.5mb 61f 62f
8:50 3.5ft 11s 7s 4 7 mph 1022.6mb 60f 61f
7:50 3.5ft 10s 8s 2 4 mph 1022.2mb 60f 61f
6:50 3.5ft 13s 8s 4 4 mph 1021.8mb 60f 61f
5:50 4ft 10s 8s 4 7 mph 1021.3mb 60f 60f
4:50 4ft 9s 8s 7 9 mph 1021mb 61f 60f
3:50 3.5ft 10s 8s 4 4 mph 1020.9mb 61f 60f
2:50 3.5ft 9s 8s  -  2 mph 1021.2mb 61f 60f
1:50 3.5ft 10s 8s  -  2 mph 1021.3mb 61f 60f
12:50 3.5ft 10s 8s 2 4 mph 1020.9mb 61f 61f
dom 09/17 11:50 3.5ft 10s 7s 7 9 mph 1021.2mb 62f 61f
10:50 3.5ft 11s  -  7 9 mph 1021.3mb 62f 61f
9:50 3ft 10s 7s 9 11 mph 1021.1mb 62f 61f
8:50 2.5ft 11s 6s 7 9 mph 1020.9mb 62f 62f
7:50 3ft 11s 6s 9 9 mph 1020.5mb 62f 62f